sensor_id;sensor_type;location;lat;lon;timestamp;temperature;humidity
2913;DHT22;1466;48.778;9.166;2022-08-19T00:01:40;23.60;91.00
2913;DHT22;1466;48.778;9.166;2022-08-19T00:04:11;23.60;91.10
2913;DHT22;1466;48.778;9.166;2022-08-19T00:06:39;23.60;91.10
2913;DHT22;1466;48.778;9.166;2022-08-19T00:09:08;23.50;91.10
2913;DHT22;1466;48.778;9.166;2022-08-19T00:11:36;23.50;91.10
2913;DHT22;1466;48.778;9.166;2022-08-19T00:14:04;23.50;91.20
2913;DHT22;1466;48.778;9.166;2022-08-19T00:16:30;23.40;91.30
2913;DHT22;1466;48.778;9.166;2022-08-19T00:18:56;23.40;91.40
2913;DHT22;1466;48.778;9.166;2022-08-19T00:21:23;23.40;91.40
2913;DHT22;1466;48.778;9.166;2022-08-19T00:23:49;23.30;91.40
2913;DHT22;1466;48.778;9.166;2022-08-19T00:26:15;23.30;91.50
2913;DHT22;1466;48.778;9.166;2022-08-19T00:28:41;23.40;91.50
2913;DHT22;1466;48.778;9.166;2022-08-19T00:31:08;23.40;91.50
2913;DHT22;1466;48.778;9.166;2022-08-19T00:33:34;23.40;91.80
2913;DHT22;1466;48.778;9.166;2022-08-19T00:36:01;23.50;91.40
2913;DHT22;1466;48.778;9.166;2022-08-19T00:38:30;23.50;91.40
2913;DHT22;1466;48.778;9.166;2022-08-19T00:40:56;23.40;91.40
2913;DHT22;1466;48.778;9.166;2022-08-19T00:43:23;23.40;91.40
2913;DHT22;1466;48.778;9.166;2022-08-19T00:45:50;23.30;91.40
2913;DHT22;1466;48.778;9.166;2022-08-19T00:48:17;23.20;91.50
2913;DHT22;1466;48.778;9.166;2022-08-19T00:50:44;23.30;91.70
2913;DHT22;1466;48.778;9.166;2022-08-19T00:53:12;23.20;91.60
2913;DHT22;1466;48.778;9.166;2022-08-19T00:55:41;23.20;91.70
2913;DHT22;1466;48.778;9.166;2022-08-19T00:58:12;23.20;91.70
2913;DHT22;1466;48.778;9.166;2022-08-19T01:00:39;23.20;91.80
2913;DHT22;1466;48.778;9.166;2022-08-19T01:03:09;23.30;91.70
2913;DHT22;1466;48.778;9.166;2022-08-19T01:05:37;23.20;91.70
2913;DHT22;1466;48.778;9.166;2022-08-19T01:08:05;23.30;91.70
2913;DHT22;1466;48.778;9.166;2022-08-19T01:10:37;23.20;92.10
2913;DHT22;1466;48.778;9.166;2022-08-19T01:13:04;23.20;91.80
2913;DHT22;1466;48.778;9.166;2022-08-19T01:15:33;23.20;91.90
2913;DHT22;1466;48.778;9.166;2022-08-19T01:18:07;23.20;91.90
2913;DHT22;1466;48.778;9.166;2022-08-19T01:20:33;23.20;91.80
2913;DHT22;1466;48.778;9.166;2022-08-19T01:23:00;23.30;91.90
2913;DHT22;1466;48.778;9.166;2022-08-19T01:25:39;23.20;91.80
2913;DHT22;1466;48.778;9.166;2022-08-19T01:28:07;23.20;91.80
2913;DHT22;1466;48.778;9.166;2022-08-19T01:30:34;23.20;91.90
2913;DHT22;1466;48.778;9.166;2022-08-19T01:33:01;23.20;91.90
2913;DHT22;1466;48.778;9.166;2022-08-19T01:35:28;23.30;91.90
2913;DHT22;1466;48.778;9.166;2022-08-19T01:38:01;23.30;91.90
2913;DHT22;1466;48.778;9.166;2022-08-19T01:40:30;23.20;91.90
2913;DHT22;1466;48.778;9.166;2022-08-19T01:42:57;23.10;92.00
2913;DHT22;1466;48.778;9.166;2022-08-19T01:45:24;23.10;92.10
2913;DHT22;1466;48.778;9.166;2022-08-19T01:47:50;23.10;92.10
2913;DHT22;1466;48.778;9.166;2022-08-19T01:50:16;23.10;92.20
2913;DHT22;1466;48.778;9.166;2022-08-19T01:52:43;23.20;92.20
2913;DHT22;1466;48.778;9.166;2022-08-19T01:55:12;23.10;92.20
2913;DHT22;1466;48.778;9.166;2022-08-19T01:57:39;23.10;92.20
2913;DHT22;1466;48.778;9.166;2022-08-19T02:00:11;23.10;92.20
2913;DHT22;1466;48.778;9.166;2022-08-19T02:02:37;23.20;92.30
2913;DHT22;1466;48.778;9.166;2022-08-19T02:05:03;23.10;92.30
2913;DHT22;1466;48.778;9.166;2022-08-19T02:07:29;23.10;92.40
2913;DHT22;1466;48.778;9.166;2022-08-19T02:09:55;23.10;92.40
2913;DHT22;1466;48.778;9.166;2022-08-19T02:12:21;23.10;92.40
2913;DHT22;1466;48.778;9.166;2022-08-19T02:14:47;23.20;92.40
2913;DHT22;1466;48.778;9.166;2022-08-19T02:17:12;23.10;92.50
2913;DHT22;1466;48.778;9.166;2022-08-19T02:19:38;23.10;92.90
2913;DHT22;1466;48.778;9.166;2022-08-19T02:22:04;23.00;92.70
2913;DHT22;1466;48.778;9.166;2022-08-19T02:24:29;23.00;92.80
2913;DHT22;1466;48.778;9.166;2022-08-19T02:26:55;23.00;92.80
2913;DHT22;1466;48.778;9.166;2022-08-19T02:29:20;23.00;92.80
2913;DHT22;1466;48.778;9.166;2022-08-19T02:31:46;23.00;92.80
2913;DHT22;1466;48.778;9.166;2022-08-19T02:34:12;23.00;92.90
2913;DHT22;1466;48.778;9.166;2022-08-19T02:36:37;22.90;93.00
2913;DHT22;1466;48.778;9.166;2022-08-19T02:39:03;22.90;93.00
2913;DHT22;1466;48.778;9.166;2022-08-19T02:41:32;22.90;93.00
2913;DHT22;1466;48.778;9.166;2022-08-19T02:44:00;22.90;93.10
2913;DHT22;1466;48.778;9.166;2022-08-19T02:46:31;22.90;93.20
2913;DHT22;1466;48.778;9.166;2022-08-19T02:49:03;22.90;93.10
2913;DHT22;1466;48.778;9.166;2022-08-19T02:51:34;22.90;93.10
2913;DHT22;1466;48.778;9.166;2022-08-19T02:54:01;22.80;93.20
2913;DHT22;1466;48.778;9.166;2022-08-19T02:56:27;22.80;93.30
2913;DHT22;1466;48.778;9.166;2022-08-19T02:58:54;22.80;93.40
2913;DHT22;1466;48.778;9.166;2022-08-19T03:01:40;22.80;93.50
2913;DHT22;1466;48.778;9.166;2022-08-19T03:04:09;22.80;93.50
2913;DHT22;1466;48.778;9.166;2022-08-19T03:06:40;22.70;93.50
2913;DHT22;1466;48.778;9.166;2022-08-19T03:09:06;22.80;93.60
2913;DHT22;1466;48.778;9.166;2022-08-19T03:11:32;22.70;93.60
2913;DHT22;1466;48.778;9.166;2022-08-19T03:13:59;22.70;93.80
2913;DHT22;1466;48.778;9.166;2022-08-19T03:16:28;22.70;93.90
2913;DHT22;1466;48.778;9.166;2022-08-19T03:18:56;22.70;94.10
2913;DHT22;1466;48.778;9.166;2022-08-19T03:21:28;22.70;94.20
2913;DHT22;1466;48.778;9.166;2022-08-19T03:23:55;22.70;94.30
2913;DHT22;1466;48.778;9.166;2022-08-19T03:26:21;22.50;94.40
2913;DHT22;1466;48.778;9.166;2022-08-19T03:28:47;22.50;94.60
2913;DHT22;1466;48.778;9.166;2022-08-19T03:31:16;22.50;94.70
2913;DHT22;1466;48.778;9.166;2022-08-19T03:33:43;22.50;94.80
2913;DHT22;1466;48.778;9.166;2022-08-19T03:36:13;22.50;94.80
2913;DHT22;1466;48.778;9.166;2022-08-19T03:38:41;22.50;94.80
2913;DHT22;1466;48.778;9.166;2022-08-19T03:41:10;22.40;94.90
2913;DHT22;1466;48.778;9.166;2022-08-19T03:43:37;22.30;94.90
2913;DHT22;1466;48.778;9.166;2022-08-19T03:46:12;22.30;95.00
2913;DHT22;1466;48.778;9.166;2022-08-19T03:48:39;22.30;95.10
2913;DHT22;1466;48.778;9.166;2022-08-19T03:51:06;22.30;95.10
2913;DHT22;1466;48.778;9.166;2022-08-19T03:53:33;22.30;95.20
2913;DHT22;1466;48.778;9.166;2022-08-19T03:55:59;22.30;95.20
2913;DHT22;1466;48.778;9.166;2022-08-19T03:58:26;22.30;95.10
2913;DHT22;1466;48.778;9.166;2022-08-19T04:00:57;22.20;95.10
2913;DHT22;1466;48.778;9.166;2022-08-19T04:03:23;22.30;95.20
2913;DHT22;1466;48.778;9.166;2022-08-19T04:05:49;22.20;95.20
2913;DHT22;1466;48.778;9.166;2022-08-19T04:08:15;22.20;95.30
2913;DHT22;1466;48.778;9.166;2022-08-19T04:10:44;22.20;95.30
2913;DHT22;1466;48.778;9.166;2022-08-19T04:13:10;22.20;95.30
2913;DHT22;1466;48.778;9.166;2022-08-19T04:15:40;22.20;95.30
2913;DHT22;1466;48.778;9.166;2022-08-19T04:18:08;22.20;95.30
2913;DHT22;1466;48.778;9.166;2022-08-19T04:20:45;22.20;95.20
2913;DHT22;1466;48.778;9.166;2022-08-19T04:23:13;22.20;95.20
2913;DHT22;1466;48.778;9.166;2022-08-19T04:25:42;22.20;95.20
2913;DHT22;1466;48.778;9.166;2022-08-19T04:28:10;22.30;95.20
2913;DHT22;1466;48.778;9.166;2022-08-19T04:30:45;22.30;95.20
2913;DHT22;1466;48.778;9.166;2022-08-19T04:33:13;22.30;95.20
2913;DHT22;1466;48.778;9.166;2022-08-19T04:35:41;22.30;95.20
2913;DHT22;1466;48.778;9.166;2022-08-19T04:38:07;22.20;95.10
2913;DHT22;1466;48.778;9.166;2022-08-19T04:40:34;22.20;95.20
2913;DHT22;1466;48.778;9.166;2022-08-19T04:43:18;22.20;95.10
2913;DHT22;1466;48.778;9.166;2022-08-19T04:45:44;22.30;95.10
2913;DHT22;1466;48.778;9.166;2022-08-19T04:48:10;22.30;95.10
2913;DHT22;1466;48.778;9.166;2022-08-19T04:50:39;22.30;95.10
2913;DHT22;1466;48.778;9.166;2022-08-19T04:53:05;22.20;95.20
2913;DHT22;1466;48.778;9.166;2022-08-19T04:55:31;22.20;95.20
2913;DHT22;1466;48.778;9.166;2022-08-19T04:57:56;22.30;95.20
2913;DHT22;1466;48.778;9.166;2022-08-19T05:00:22;22.20;95.20
2913;DHT22;1466;48.778;9.166;2022-08-19T05:02:48;22.20;95.20
2913;DHT22;1466;48.778;9.166;2022-08-19T05:05:14;22.20;95.30
2913;DHT22;1466;48.778;9.166;2022-08-19T05:07:40;22.20;95.30
2913;DHT22;1466;48.778;9.166;2022-08-19T05:10:06;22.20;95.40
2913;DHT22;1466;48.778;9.166;2022-08-19T05:12:33;22.20;95.50
2913;DHT22;1466;48.778;9.166;2022-08-19T05:14:59;22.20;95.50
2913;DHT22;1466;48.778;9.166;2022-08-19T05:17:27;22.20;95.50
2913;DHT22;1466;48.778;9.166;2022-08-19T05:19:52;22.10;95.60
2913;DHT22;1466;48.778;9.166;2022-08-19T05:22:37;22.20;95.70
2913;DHT22;1466;48.778;9.166;2022-08-19T05:25:12;22.10;95.70
2913;DHT22;1466;48.778;9.166;2022-08-19T05:27:38;22.10;95.70
2913;DHT22;1466;48.778;9.166;2022-08-19T05:30:04;22.10;95.80
2913;DHT22;1466;48.778;9.166;2022-08-19T05:32:30;22.20;95.90
2913;DHT22;1466;48.778;9.166;2022-08-19T05:34:56;22.30;95.90
2913;DHT22;1466;48.778;9.166;2022-08-19T05:37:22;22.30;95.70
2913;DHT22;1466;48.778;9.166;2022-08-19T05:39:47;22.30;95.90
2913;DHT22;1466;48.778;9.166;2022-08-19T05:42:15;22.40;95.60
2913;DHT22;1466;48.778;9.166;2022-08-19T05:44:42;22.40;95.60
2913;DHT22;1466;48.778;9.166;2022-08-19T05:47:10;22.30;95.60
2913;DHT22;1466;48.778;9.166;2022-08-19T05:49:36;22.30;95.60
2913;DHT22;1466;48.778;9.166;2022-08-19T05:52:07;22.30;95.50
2913;DHT22;1466;48.778;9.166;2022-08-19T05:54:33;22.20;95.60
2913;DHT22;1466;48.778;9.166;2022-08-19T05:57:01;22.20;95.70
2913;DHT22;1466;48.778;9.166;2022-08-19T05:59:27;22.10;96.00
2913;DHT22;1466;48.778;9.166;2022-08-19T06:01:53;22.00;96.20
2913;DHT22;1466;48.778;9.166;2022-08-19T06:04:21;22.00;96.20
2913;DHT22;1466;48.778;9.166;2022-08-19T06:06:50;22.10;96.30
2913;DHT22;1466;48.778;9.166;2022-08-19T06:09:17;22.10;96.20
2913;DHT22;1466;48.778;9.166;2022-08-19T06:11:46;22.10;96.20
2913;DHT22;1466;48.778;9.166;2022-08-19T06:14:15;22.20;96.10
2913;DHT22;1466;48.778;9.166;2022-08-19T06:16:42;22.20;96.00
2913;DHT22;1466;48.778;9.166;2022-08-19T06:19:11;22.20;96.00
2913;DHT22;1466;48.778;9.166;2022-08-19T06:21:40;22.20;96.10
2913;DHT22;1466;48.778;9.166;2022-08-19T06:24:08;22.10;96.00
2913;DHT22;1466;48.778;9.166;2022-08-19T06:26:36;22.10;96.20
2913;DHT22;1466;48.778;9.166;2022-08-19T06:29:04;22.20;96.20
2913;DHT22;1466;48.778;9.166;2022-08-19T06:31:31;22.20;96.10
2913;DHT22;1466;48.778;9.166;2022-08-19T06:34:03;22.10;96.20
2913;DHT22;1466;48.778;9.166;2022-08-19T06:36:35;22.20;96.20
2913;DHT22;1466;48.778;9.166;2022-08-19T06:39:04;22.30;96.10
2913;DHT22;1466;48.778;9.166;2022-08-19T06:41:31;22.30;96.10
2913;DHT22;1466;48.778;9.166;2022-08-19T06:43:59;22.20;96.00
2913;DHT22;1466;48.778;9.166;2022-08-19T06:46:25;22.10;96.10
2913;DHT22;1466;48.778;9.166;2022-08-19T06:48:52;22.10;96.40
2913;DHT22;1466;48.778;9.166;2022-08-19T06:51:19;22.10;96.60
2913;DHT22;1466;48.778;9.166;2022-08-19T06:53:49;22.00;96.80
2913;DHT22;1466;48.778;9.166;2022-08-19T06:56:17;22.00;97.00
2913;DHT22;1466;48.778;9.166;2022-08-19T06:58:44;22.00;97.20
2913;DHT22;1466;48.778;9.166;2022-08-19T07:01:09;22.00;97.40
2913;DHT22;1466;48.778;9.166;2022-08-19T07:03:36;22.10;97.60
2913;DHT22;1466;48.778;9.166;2022-08-19T07:06:07;22.10;97.60
2913;DHT22;1466;48.778;9.166;2022-08-19T07:08:35;22.10;97.40
2913;DHT22;1466;48.778;9.166;2022-08-19T07:11:05;22.00;97.50
2913;DHT22;1466;48.778;9.166;2022-08-19T07:13:32;22.00;97.60
2913;DHT22;1466;48.778;9.166;2022-08-19T07:16:10;22.00;97.70
2913;DHT22;1466;48.778;9.166;2022-08-19T07:18:36;22.00;97.70
2913;DHT22;1466;48.778;9.166;2022-08-19T07:21:06;22.00;98.20
2913;DHT22;1466;48.778;9.166;2022-08-19T07:23:33;22.00;97.70
2913;DHT22;1466;48.778;9.166;2022-08-19T07:26:17;22.00;97.70
2913;DHT22;1466;48.778;9.166;2022-08-19T07:28:43;22.00;97.80
2913;DHT22;1466;48.778;9.166;2022-08-19T07:31:11;22.00;97.70
2913;DHT22;1466;48.778;9.166;2022-08-19T07:33:38;22.00;97.80
2913;DHT22;1466;48.778;9.166;2022-08-19T07:36:07;22.00;97.70
2913;DHT22;1466;48.778;9.166;2022-08-19T07:38:34;21.90;97.80
2913;DHT22;1466;48.778;9.166;2022-08-19T07:41:00;21.90;98.30
2913;DHT22;1466;48.778;9.166;2022-08-19T07:43:27;21.90;98.00
2913;DHT22;1466;48.778;9.166;2022-08-19T07:45:54;21.90;97.90
2913;DHT22;1466;48.778;9.166;2022-08-19T07:48:26;21.90;97.80
2913;DHT22;1466;48.778;9.166;2022-08-19T07:50:56;21.90;97.80
2913;DHT22;1466;48.778;9.166;2022-08-19T07:53:23;22.00;98.00
2913;DHT22;1466;48.778;9.166;2022-08-19T07:55:50;22.10;97.80
2913;DHT22;1466;48.778;9.166;2022-08-19T07:58:19;22.10;97.70
2913;DHT22;1466;48.778;9.166;2022-08-19T08:00:47;22.10;97.60
2913;DHT22;1466;48.778;9.166;2022-08-19T08:03:15;22.10;97.60
2913;DHT22;1466;48.778;9.166;2022-08-19T08:05:41;22.10;97.50
2913;DHT22;1466;48.778;9.166;2022-08-19T08:08:26;22.10;97.60
2913;DHT22;1466;48.778;9.166;2022-08-19T08:11:10;22.20;97.40
2913;DHT22;1466;48.778;9.166;2022-08-19T08:13:36;22.30;97.30
2913;DHT22;1466;48.778;9.166;2022-08-19T08:16:02;22.20;97.40
2913;DHT22;1466;48.778;9.166;2022-08-19T08:18:28;22.30;97.30
2913;DHT22;1466;48.778;9.166;2022-08-19T08:20:55;22.30;97.10
2913;DHT22;1466;48.778;9.166;2022-08-19T08:23:21;22.20;97.10
2913;DHT22;1466;48.778;9.166;2022-08-19T08:25:47;22.00;97.20
2913;DHT22;1466;48.778;9.166;2022-08-19T08:28:14;22.10;97.50
2913;DHT22;1466;48.778;9.166;2022-08-19T08:30:40;22.00;97.40
2913;DHT22;1466;48.778;9.166;2022-08-19T08:33:09;21.90;97.60
2913;DHT22;1466;48.778;9.166;2022-08-19T08:35:35;22.00;97.60
2913;DHT22;1466;48.778;9.166;2022-08-19T08:38:00;21.90;97.50
2913;DHT22;1466;48.778;9.166;2022-08-19T08:43:35;21.90;97.80
2913;DHT22;1466;48.778;9.166;2022-08-19T08:46:10;22.10;97.80
2913;DHT22;1466;48.778;9.166;2022-08-19T08:51:21;22.20;97.70
2913;DHT22;1466;48.778;9.166;2022-08-19T08:53:50;22.30;97.80
2913;DHT22;1466;48.778;9.166;2022-08-19T08:56:16;22.40;97.90
2913;DHT22;1466;48.778;9.166;2022-08-19T08:58:58;22.30;97.90
2913;DHT22;1466;48.778;9.166;2022-08-19T09:01:24;22.30;98.00
2913;DHT22;1466;48.778;9.166;2022-08-19T09:03:50;22.30;98.00
2913;DHT22;1466;48.778;9.166;2022-08-19T09:09:14;22.30;98.10
2913;DHT22;1466;48.778;9.166;2022-08-19T09:16:57;22.20;98.80
2913;DHT22;1466;48.778;9.166;2022-08-19T09:19:23;22.30;98.50
2913;DHT22;1466;48.778;9.166;2022-08-19T09:21:49;22.30;98.50
2913;DHT22;1466;48.778;9.166;2022-08-19T09:24:15;22.40;98.60
2913;DHT22;1466;48.778;9.166;2022-08-19T09:26:41;22.40;98.80
2913;DHT22;1466;48.778;9.166;2022-08-19T09:29:09;22.50;98.30
2913;DHT22;1466;48.778;9.166;2022-08-19T09:31:35;22.60;98.10
2913;DHT22;1466;48.778;9.166;2022-08-19T09:34:01;22.60;98.10
2913;DHT22;1466;48.778;9.166;2022-08-19T09:36:29;22.70;98.10
2913;DHT22;1466;48.778;9.166;2022-08-19T09:38:58;22.80;98.10
2913;DHT22;1466;48.778;9.166;2022-08-19T09:41:25;22.90;97.90
2913;DHT22;1466;48.778;9.166;2022-08-19T09:43:53;22.90;97.80
2913;DHT22;1466;48.778;9.166;2022-08-19T09:46:21;23.00;97.70
2913;DHT22;1466;48.778;9.166;2022-08-19T09:48:48;23.00;97.40
2913;DHT22;1466;48.778;9.166;2022-08-19T09:51:19;23.00;97.40
2913;DHT22;1466;48.778;9.166;2022-08-19T09:53:46;23.00;97.40
2913;DHT22;1466;48.778;9.166;2022-08-19T09:56:13;23.10;97.30
2913;DHT22;1466;48.778;9.166;2022-08-19T09:58:39;23.00;97.20
2913;DHT22;1466;48.778;9.166;2022-08-19T10:01:06;23.00;97.30
2913;DHT22;1466;48.778;9.166;2022-08-19T10:03:33;23.00;97.30
2913;DHT22;1466;48.778;9.166;2022-08-19T10:06:01;23.00;97.30
2913;DHT22;1466;48.778;9.166;2022-08-19T10:08:34;23.00;97.10
2913;DHT22;1466;48.778;9.166;2022-08-19T10:11:01;23.00;97.20
2913;DHT22;1466;48.778;9.166;2022-08-19T10:13:28;23.00;97.20
2913;DHT22;1466;48.778;9.166;2022-08-19T10:16:01;23.10;97.20
2913;DHT22;1466;48.778;9.166;2022-08-19T10:18:27;23.10;96.90
2913;DHT22;1466;48.778;9.166;2022-08-19T10:21:12;23.10;96.90
2913;DHT22;1466;48.778;9.166;2022-08-19T10:23:41;23.20;97.40
2913;DHT22;1466;48.778;9.166;2022-08-19T10:26:15;23.30;96.80
2913;DHT22;1466;48.778;9.166;2022-08-19T10:28:41;23.30;96.60
2913;DHT22;1466;48.778;9.166;2022-08-19T10:31:17;23.40;96.70
2913;DHT22;1466;48.778;9.166;2022-08-19T10:33:46;23.50;96.60
2913;DHT22;1466;48.778;9.166;2022-08-19T10:36:19;23.60;96.40
2913;DHT22;1466;48.778;9.166;2022-08-19T10:38:47;23.60;96.20
2913;DHT22;1466;48.778;9.166;2022-08-19T10:41:18;23.70;96.00
2913;DHT22;1466;48.778;9.166;2022-08-19T10:43:44;23.70;96.00
2913;DHT22;1466;48.778;9.166;2022-08-19T10:46:13;23.90;95.90
2913;DHT22;1466;48.778;9.166;2022-08-19T10:48:39;23.90;95.80
2913;DHT22;1466;48.778;9.166;2022-08-19T10:51:05;23.90;95.50
2913;DHT22;1466;48.778;9.166;2022-08-19T10:53:51;23.90;95.30
2913;DHT22;1466;48.778;9.166;2022-08-19T10:56:17;24.00;95.20
2913;DHT22;1466;48.778;9.166;2022-08-19T10:59:02;24.10;95.00
2913;DHT22;1466;48.778;9.166;2022-08-19T11:01:29;24.00;94.90
2913;DHT22;1466;48.778;9.166;2022-08-19T11:03:56;24.00;94.70
2913;DHT22;1466;48.778;9.166;2022-08-19T11:06:23;24.00;94.60
2913;DHT22;1466;48.778;9.166;2022-08-19T11:08:54;23.90;94.60
2913;DHT22;1466;48.778;9.166;2022-08-19T11:11:20;23.70;94.70
2913;DHT22;1466;48.778;9.166;2022-08-19T11:13:45;23.70;94.80
2913;DHT22;1466;48.778;9.166;2022-08-19T11:16:15;23.80;94.80
2913;DHT22;1466;48.778;9.166;2022-08-19T11:18:47;23.80;94.80
2913;DHT22;1466;48.778;9.166;2022-08-19T11:23:47;24.00;94.40
2913;DHT22;1466;48.778;9.166;2022-08-19T11:26:13;24.10;94.20
2913;DHT22;1466;48.778;9.166;2022-08-19T11:28:40;24.10;94.20
2913;DHT22;1466;48.778;9.166;2022-08-19T11:31:18;24.30;94.10
2913;DHT22;1466;48.778;9.166;2022-08-19T11:33:44;24.30;93.90
2913;DHT22;1466;48.778;9.166;2022-08-19T11:36:10;24.30;93.70
2913;DHT22;1466;48.778;9.166;2022-08-19T11:38:36;24.30;93.80
2913;DHT22;1466;48.778;9.166;2022-08-19T11:41:05;24.40;93.80
2913;DHT22;1466;48.778;9.166;2022-08-19T11:43:31;24.50;93.60
2913;DHT22;1466;48.778;9.166;2022-08-19T11:45:57;24.50;93.50
2913;DHT22;1466;48.778;9.166;2022-08-19T11:48:26;24.70;93.40
2913;DHT22;1466;48.778;9.166;2022-08-19T11:50:53;24.70;93.00
2913;DHT22;1466;48.778;9.166;2022-08-19T11:53:21;24.80;92.70
2913;DHT22;1466;48.778;9.166;2022-08-19T11:55:48;24.90;92.50
2913;DHT22;1466;48.778;9.166;2022-08-19T11:58:15;24.70;92.30
2913;DHT22;1466;48.778;9.166;2022-08-19T12:00:42;24.70;92.30
2913;DHT22;1466;48.778;9.166;2022-08-19T12:03:11;24.70;92.30
2913;DHT22;1466;48.778;9.166;2022-08-19T12:05:38;24.70;92.20
2913;DHT22;1466;48.778;9.166;2022-08-19T12:08:05;24.70;92.10
2913;DHT22;1466;48.778;9.166;2022-08-19T12:10:32;24.60;92.10
2913;DHT22;1466;48.778;9.166;2022-08-19T12:12:58;24.60;92.10
2913;DHT22;1466;48.778;9.166;2022-08-19T12:15:24;24.50;92.20
2913;DHT22;1466;48.778;9.166;2022-08-19T12:17:50;24.60;92.30
2913;DHT22;1466;48.778;9.166;2022-08-19T12:20:15;24.70;92.20
2913;DHT22;1466;48.778;9.166;2022-08-19T12:22:42;24.80;92.10
2913;DHT22;1466;48.778;9.166;2022-08-19T12:25:11;24.80;91.90
2913;DHT22;1466;48.778;9.166;2022-08-19T12:27:38;24.80;91.90
2913;DHT22;1466;48.778;9.166;2022-08-19T12:30:06;24.90;91.90
2913;DHT22;1466;48.778;9.166;2022-08-19T12:32:33;24.90;92.10
2913;DHT22;1466;48.778;9.166;2022-08-19T12:34:59;24.90;91.80
2913;DHT22;1466;48.778;9.166;2022-08-19T12:37:25;24.90;91.70
2913;DHT22;1466;48.778;9.166;2022-08-19T12:39:50;25.00;91.70
2913;DHT22;1466;48.778;9.166;2022-08-19T12:42:16;25.00;91.60
2913;DHT22;1466;48.778;9.166;2022-08-19T12:44:43;24.90;91.70
2913;DHT22;1466;48.778;9.166;2022-08-19T12:47:11;24.90;92.10
2913;DHT22;1466;48.778;9.166;2022-08-19T12:49:37;24.90;92.30
2913;DHT22;1466;48.778;9.166;2022-08-19T12:52:06;24.90;92.40
2913;DHT22;1466;48.778;9.166;2022-08-19T12:54:33;25.00;92.50
2913;DHT22;1466;48.778;9.166;2022-08-19T12:56:59;25.10;92.40
2913;DHT22;1466;48.778;9.166;2022-08-19T12:59:26;25.20;92.40
2913;DHT22;1466;48.778;9.166;2022-08-19T13:01:52;25.20;92.40
2913;DHT22;1466;48.778;9.166;2022-08-19T13:04:17;25.20;92.50
2913;DHT22;1466;48.778;9.166;2022-08-19T13:06:43;25.20;92.60
2913;DHT22;1466;48.778;9.166;2022-08-19T13:09:09;25.20;92.60
2913;DHT22;1466;48.778;9.166;2022-08-19T13:11:36;25.20;92.60
2913;DHT22;1466;48.778;9.166;2022-08-19T13:14:03;25.10;92.70
2913;DHT22;1466;48.778;9.166;2022-08-19T13:16:30;25.10;92.80
2913;DHT22;1466;48.778;9.166;2022-08-19T13:18:57;25.10;92.90
2913;DHT22;1466;48.778;9.166;2022-08-19T13:21:25;25.00;92.90
2913;DHT22;1466;48.778;9.166;2022-08-19T13:23:52;25.00;93.00
2913;DHT22;1466;48.778;9.166;2022-08-19T13:26:18;24.90;93.00
2913;DHT22;1466;48.778;9.166;2022-08-19T13:28:44;25.00;93.00
2913;DHT22;1466;48.778;9.166;2022-08-19T13:31:31;24.90;93.00
2913;DHT22;1466;48.778;9.166;2022-08-19T13:34:17;24.90;93.20
2913;DHT22;1466;48.778;9.166;2022-08-19T13:36:43;24.90;93.40
2913;DHT22;1466;48.778;9.166;2022-08-19T13:39:09;24.90;93.60
2913;DHT22;1466;48.778;9.166;2022-08-19T13:41:36;24.90;93.70
2913;DHT22;1466;48.778;9.166;2022-08-19T13:44:02;24.80;94.10
2913;DHT22;1466;48.778;9.166;2022-08-19T13:46:29;24.70;94.30
2913;DHT22;1466;48.778;9.166;2022-08-19T13:48:55;24.70;94.60
2913;DHT22;1466;48.778;9.166;2022-08-19T13:51:22;24.60;94.80
2913;DHT22;1466;48.778;9.166;2022-08-19T13:53:47;24.50;95.30
2913;DHT22;1466;48.778;9.166;2022-08-19T13:56:16;24.40;95.70
2913;DHT22;1466;48.778;9.166;2022-08-19T13:58:42;24.30;96.00
2913;DHT22;1466;48.778;9.166;2022-08-19T14:01:09;24.30;96.40
2913;DHT22;1466;48.778;9.166;2022-08-19T14:03:35;24.20;96.70
2913;DHT22;1466;48.778;9.166;2022-08-19T14:06:01;24.00;97.10
2913;DHT22;1466;48.778;9.166;2022-08-19T14:08:27;24.00;97.50
2913;DHT22;1466;48.778;9.166;2022-08-19T14:10:54;23.90;98.00
2913;DHT22;1466;48.778;9.166;2022-08-19T14:13:21;23.80;98.50
2913;DHT22;1466;48.778;9.166;2022-08-19T14:15:48;23.70;98.80
2913;DHT22;1466;48.778;9.166;2022-08-19T14:18:15;23.60;99.40
2913;DHT22;1466;48.778;9.166;2022-08-19T14:20:41;23.60;99.90
2913;DHT22;1466;48.778;9.166;2022-08-19T14:23:07;23.70;99.90
2913;DHT22;1466;48.778;9.166;2022-08-19T14:25:33;23.70;99.90
2913;DHT22;1466;48.778;9.166;2022-08-19T14:27:59;23.70;99.90
2913;DHT22;1466;48.778;9.166;2022-08-19T14:30:33;23.80;99.90
2913;DHT22;1466;48.778;9.166;2022-08-19T14:33:01;23.80;99.90
2913;DHT22;1466;48.778;9.166;2022-08-19T14:35:28;23.90;99.90
2913;DHT22;1466;48.778;9.166;2022-08-19T14:37:55;24.00;99.90
2913;DHT22;1466;48.778;9.166;2022-08-19T14:40:23;24.10;99.90
2913;DHT22;1466;48.778;9.166;2022-08-19T14:42:53;24.10;99.90
2913;DHT22;1466;48.778;9.166;2022-08-19T14:45:21;24.10;99.90
2913;DHT22;1466;48.778;9.166;2022-08-19T14:47:47;24.00;99.90
2913;DHT22;1466;48.778;9.166;2022-08-19T14:50:12;24.00;99.90
2913;DHT22;1466;48.778;9.166;2022-08-19T14:52:39;24.10;99.90
2913;DHT22;1466;48.778;9.166;2022-08-19T14:55:05;24.00;99.90
2913;DHT22;1466;48.778;9.166;2022-08-19T14:57:31;24.00;99.90
2913;DHT22;1466;48.778;9.166;2022-08-19T14:59:58;24.10;99.90
2913;DHT22;1466;48.778;9.166;2022-08-19T15:02:24;24.20;99.90
2913;DHT22;1466;48.778;9.166;2022-08-19T15:04:49;24.20;99.80
2913;DHT22;1466;48.778;9.166;2022-08-19T15:07:16;24.30;99.70
2913;DHT22;1466;48.778;9.166;2022-08-19T15:09:41;24.40;99.60
2913;DHT22;1466;48.778;9.166;2022-08-19T15:12:07;24.40;99.50
2913;DHT22;1466;48.778;9.166;2022-08-19T15:14:36;24.50;99.30
2913;DHT22;1466;48.778;9.166;2022-08-19T15:17:04;24.70;99.20
2913;DHT22;1466;48.778;9.166;2022-08-19T15:19:34;24.80;99.00
2913;DHT22;1466;48.778;9.166;2022-08-19T15:22:01;24.90;98.60
2913;DHT22;1466;48.778;9.166;2022-08-19T15:24:27;24.90;98.20
2913;DHT22;1466;48.778;9.166;2022-08-19T15:26:53;24.90;98.10
2913;DHT22;1466;48.778;9.166;2022-08-19T15:29:21;24.90;97.90
2913;DHT22;1466;48.778;9.166;2022-08-19T15:31:50;24.90;97.80
2913;DHT22;1466;48.778;9.166;2022-08-19T15:34:16;25.00;97.80
2913;DHT22;1466;48.778;9.166;2022-08-19T15:36:42;25.10;97.70
2913;DHT22;1466;48.778;9.166;2022-08-19T15:39:08;25.10;97.50
2913;DHT22;1466;48.778;9.166;2022-08-19T15:41:34;25.10;97.50
2913;DHT22;1466;48.778;9.166;2022-08-19T15:44:07;25.10;97.40
2913;DHT22;1466;48.778;9.166;2022-08-19T15:46:36;25.00;97.40
2913;DHT22;1466;48.778;9.166;2022-08-19T15:49:04;25.00;97.30
2913;DHT22;1466;48.778;9.166;2022-08-19T15:51:31;25.00;97.20
2913;DHT22;1466;48.778;9.166;2022-08-19T15:54:03;25.10;97.10
2913;DHT22;1466;48.778;9.166;2022-08-19T15:56:29;25.10;96.90
2913;DHT22;1466;48.778;9.166;2022-08-19T15:59:13;25.20;96.70
2913;DHT22;1466;48.778;9.166;2022-08-19T16:01:58;25.30;96.70
2913;DHT22;1466;48.778;9.166;2022-08-19T16:04:42;25.50;96.40
2913;DHT22;1466;48.778;9.166;2022-08-19T16:07:26;25.50;96.20
2913;DHT22;1466;48.778;9.166;2022-08-19T16:09:51;25.60;96.00
2913;DHT22;1466;48.778;9.166;2022-08-19T16:12:17;25.50;95.90
2913;DHT22;1466;48.778;9.166;2022-08-19T16:14:43;25.50;95.90
2913;DHT22;1466;48.778;9.166;2022-08-19T16:17:09;25.50;95.80
2913;DHT22;1466;48.778;9.166;2022-08-19T16:19:37;25.50;95.70
2913;DHT22;1466;48.778;9.166;2022-08-19T16:22:03;25.50;95.60
2913;DHT22;1466;48.778;9.166;2022-08-19T16:24:31;25.50;95.60